This is the latest recevied weather packets stored in our database for station/object W4CPD. If no packets are shown the sender has not sent any weather packets the latest 10 day(s).
| Time | Temp. | Humidity | Pressure | Rain* | Wind** | Luminosity | Snow |
|---|---|---|---|---|---|---|---|
| 1777858231 | 17.78° C | 67% | 1018.8 hPa | 0 mm | - | - | - |
| 1777854913 | 21.11° C | 55% | 1018.4 hPa | 0.25 mm | - | - | - |
| 1777853729 | 22.22° C | 54% | 1018.3 hPa | 0.25 mm | - | - | - |
| 1777853113 | 22.78° C | 50% | 1018.3 hPa | 0 mm | - | - | - |
| 1777850716 | 25° C | 39% | 1018.3 hPa | 0.25 mm | - | - | - |
| 1777848333 | 26.11° C | 37% | 1018.3 hPa | 0.25 mm | - | - | - |
| 1777847430 | 26.11° C | 36% | 1018 hPa | 0.25 mm | - | - | - |
| 1777843516 | 26.11° C | 34% | 1018.6 hPa | 0.25 mm | - | - | - |
| 1777842619 | 26.11° C | 34% | 1018.8 hPa | 0.25 mm | - | - | - |
| 1777839336 | 26.67° C | 37% | 1019.2 hPa | 0.25 mm | - | - | - |
| 1777839014 | 26.11° C | 34% | 1019.2 hPa | 0.25 mm | - | - | - |
| 1777837531 | 25.56° C | 42% | 1019.6 hPa | 0.25 mm | - | - | - |
| 1777834830 | 25° C | 42% | 1020.5 hPa | 0.25 mm | - | - | - |
| 1777834516 | 24.44° C | 39% | 1020.6 hPa | 0.25 mm | - | - | - |
| 1777834213 | 24.44° C | 41% | 1020.9 hPa | 0.25 mm | - | - | - |
| 1777833615 | 23.89° C | 39% | 1021.1 hPa | 0.51 mm | - | - | - |
| 1777831235 | 23.33° C | 37% | 1021.3 hPa | 0.51 mm | - | - | - |
| 1777830612 | 23.33° C | 41% | 1021.2 hPa | 0.51 mm | - | - | - |
| 1777828216 | 22.78° C | 39% | 1021.9 hPa | 0.51 mm | - | - | - |
| 1777827915 | 22.78° C | 39% | 1021.8 hPa | 0.51 mm | - | - | - |
| 1777826119 | 21.67° C | 39% | 1022.2 hPa | 0.25 mm | - | - | - |
| 1777825513 | 21.67° C | 37% | 1022.4 hPa | 0.25 mm | - | - | - |
| 1777824934 | 21.67° C | 40% | 1022.4 hPa | 0.51 mm | - | - | - |
| 1777824613 | 21.67° C | 43% | 1022.5 hPa | 0.25 mm | - | - | - |
| 1777824314 | 21.67° C | 38% | 1022.5 hPa | 0.25 mm | - | - | - |
* Rain latest hour (hover to see other rain measurements)
** Current wind speed in m/s (hover to see current wind gust speed)